This is the latest recevied weather packets stored in our database for station/object K0SNA. If no packets are shown the sender has not sent any weather packets the latest 1 day(s).
| Time | Temp. | Humidity | Pressure | Rain* | Wind** | Luminosity | Snow |
|---|---|---|---|---|---|---|---|
| 1778002478 | 10° C | 40% | 1011.4 hPa | 0 mm | 0.89 m/s, 305° | 290 W/m² | - |
| 1778002175 | 8.89° C | 40% | 1011.7 hPa | 0 mm | 1.34 m/s, 224° | 785 W/m² | - |
| 1778001874 | 8.89° C | 40% | 1011.6 hPa | 0 mm | 1.34 m/s, 278° | 314 W/m² | - |
| 1778001572 | 8.33° C | 41% | 1011.6 hPa | 0 mm | 0.45 m/s, 199° | 408 W/m² | - |
| 1778001270 | 8.33° C | 41% | 1011.5 hPa | 0 mm | 3.13 m/s, 353° | 219 W/m² | - |
| 1778000966 | 8.33° C | 40% | 1011.7 hPa | 0 mm | 1.34 m/s, 258° | 264 W/m² | - |
| 1778000663 | 8.33° C | 40% | 1011.5 hPa | 0 mm | 1.34 m/s, 258° | 481 W/m² | - |
| 1778000359 | 8.33° C | 41% | 1011.4 hPa | 0 mm | 1.34 m/s, 8° | 242 W/m² | - |
| 1778000055 | 8.33° C | 40% | 1011.6 hPa | 0 mm | 1.79 m/s, 326° | 309 W/m² | - |
| 1777999750 | 8.33° C | 41% | 1011.9 hPa | 0 mm | 2.24 m/s, 284° | 246 W/m² | - |
| 1777999447 | 8.33° C | 39% | 1011.6 hPa | 0 mm | 0.89 m/s, 285° | 914 W/m² | - |
| 1777999145 | 8.33° C | 39% | 1011.7 hPa | 0 mm | 1.79 m/s, 306° | 414 W/m² | - |
| 1777998844 | 9.44° C | 38% | 1011.6 hPa | 0 mm | 1.79 m/s, 321° | 210 W/m² | - |
| 1777998542 | 8.33° C | 41% | 1011.6 hPa | 0 mm | 1.79 m/s, 253° | 682 W/m² | - |
| 1777998238 | 8.89° C | 39% | 1011.6 hPa | 0 mm | 1.79 m/s, 225° | 183 W/m² | - |
| 1777997935 | 8.89° C | 39% | 1011.6 hPa | 0 mm | 1.34 m/s, 298° | 211 W/m² | - |
| 1777997631 | 8.33° C | 40% | 1011.7 hPa | 0 mm | 2.68 m/s, 255° | 744 W/m² | - |
| 1777997329 | 7.78° C | 42% | 1011.5 hPa | 0 mm | 2.24 m/s, 247° | 323 W/m² | - |
| 1777997027 | 8.33° C | 41% | 1011.6 hPa | 0 mm | 2.68 m/s, 341° | 143 W/m² | - |
| 1777996723 | 7.22° C | 41% | 1011.7 hPa | 0 mm | 2.24 m/s, 315° | 667 W/m² | - |
| 1777996419 | 7.78° C | 41% | 1011.4 hPa | 0 mm | 1.34 m/s, 249° | 94 W/m² | - |
| 1777996116 | 8.33° C | 41% | 1011.7 hPa | 0 mm | 0.89 m/s, 241° | 162 W/m² | - |
| 1777995812 | 8.89° C | 39% | 1011.5 hPa | 0 mm | 1.79 m/s, 336° | 622 W/m² | - |
| 1777995508 | 7.78° C | 42% | 1011.4 hPa | 0 mm | 0.89 m/s, 302° | 603 W/m² | - |
| 1777995206 | 7.78° C | 41% | 1011.5 hPa | 0 mm | 2.68 m/s, 348° | 575 W/m² | - |
* Rain latest hour (hover to see other rain measurements)
** Current wind speed in m/s (hover to see current wind gust speed)